createdAt,value
2019-03-13T00:02:25.051Z,6.60
2019-03-13T00:05:00.791Z,6.60
2019-03-13T00:07:29.499Z,6.60
2019-03-13T00:09:58.231Z,6.50
2019-03-13T00:12:33.179Z,6.70
2019-03-13T00:15:04.229Z,6.70
2019-03-13T00:17:32.962Z,6.80
2019-03-13T00:20:08.725Z,6.80
2019-03-13T00:22:37.563Z,6.90
2019-03-13T00:25:06.449Z,6.90
2019-03-13T00:27:42.075Z,7.00
2019-03-13T00:30:11.046Z,7.00
2019-03-13T00:32:39.761Z,7.00
2019-03-13T00:35:15.710Z,6.90
2019-03-13T00:37:44.472Z,6.90
2019-03-13T00:40:13.380Z,7.10
2019-03-13T00:42:49.758Z,7.30
2019-03-13T00:45:18.528Z,7.30
2019-03-13T00:47:59.735Z,7.30
2019-03-13T00:50:35.351Z,7.40
2019-03-13T00:53:10.925Z,7.40
2019-03-13T00:55:39.638Z,7.40
2019-03-13T00:58:08.371Z,7.40
2019-03-13T01:01:02.206Z,7.40
2019-03-13T01:04:05.395Z,7.40
2019-03-13T01:06:44.073Z,7.40
2019-03-13T01:09:12.822Z,7.30
2019-03-13T01:11:41.547Z,7.40
2019-03-13T01:14:16.760Z,7.40
2019-03-13T01:16:45.529Z,7.40
2019-03-13T01:19:14.266Z,7.40
2019-03-13T01:21:49.977Z,7.30
2019-03-13T01:24:18.697Z,7.30
2019-03-13T01:26:47.427Z,7.30
2019-03-13T01:29:23.166Z,7.40
2019-03-13T01:32:02.144Z,7.40
2019-03-13T01:34:43.973Z,7.40
2019-03-13T01:37:12.714Z,7.50
2019-03-13T01:39:41.419Z,7.50
2019-03-13T01:42:16.928Z,7.50
2019-03-13T01:44:45.676Z,7.50
2019-03-13T01:47:27.349Z,7.50
2019-03-13T01:50:02.888Z,7.50
2019-03-13T01:52:45.105Z,7.20
2019-03-13T01:55:13.901Z,7.00
2019-03-13T01:57:42.601Z,6.90
2019-03-13T02:00:19.073Z,6.90
2019-03-13T02:02:47.961Z,6.80
2019-03-13T02:05:16.818Z,6.60
2019-03-13T02:07:52.001Z,6.40
2019-03-13T02:10:20.760Z,6.30
2019-03-13T02:12:49.544Z,6.20
2019-03-13T02:15:25.650Z,6.10
2019-03-13T02:17:55.336Z,6.10
2019-03-13T02:20:24.153Z,6.00
2019-03-13T02:22:59.642Z,5.90
2019-03-13T02:25:28.393Z,5.80
2019-03-13T02:27:57.164Z,5.70
2019-03-13T02:30:34.524Z,5.70
2019-03-13T02:33:03.369Z,5.60
2019-03-13T02:35:32.319Z,5.50
2019-03-13T02:38:07.385Z,5.50
2019-03-13T02:40:36.138Z,5.40
2019-03-13T02:43:04.983Z,5.40
2019-03-13T02:45:40.161Z,5.40
2019-03-13T02:48:16.042Z,5.50
2019-03-13T02:50:58.246Z,5.40
2019-03-13T02:53:33.616Z,5.40
2019-03-13T02:56:08.933Z,5.40
2019-03-13T02:58:37.663Z,5.40
2019-03-13T03:01:23.513Z,5.40
2019-03-13T03:03:54.292Z,5.40
2019-03-13T03:06:23.166Z,5.30
2019-03-13T03:08:58.800Z,5.40
2019-03-13T03:11:27.505Z,5.50
2019-03-13T03:13:56.217Z,5.50
2019-03-13T03:16:31.262Z,5.50
2019-03-13T03:19:00.827Z,5.40
2019-03-13T03:21:30.556Z,5.40
2019-03-13T03:24:07.249Z,5.40
2019-03-13T03:26:36.890Z,5.40
2019-03-13T03:29:06.413Z,5.40
2019-03-13T03:31:41.670Z,5.40
2019-03-13T03:34:10.397Z,5.40
2019-03-13T03:36:39.169Z,5.40
2019-03-13T03:39:14.222Z,5.50
2019-03-13T03:41:43.046Z,5.50
2019-03-13T03:44:11.841Z,5.60
2019-03-13T03:46:47.494Z,5.70
2019-03-13T03:49:22.396Z,5.60
2019-03-13T03:52:05.208Z,5.60
2019-03-13T03:54:40.656Z,5.60
2019-03-13T03:57:16.508Z,5.50
2019-03-13T03:59:45.305Z,5.50
2019-03-13T04:02:14.037Z,5.50
2019-03-13T04:04:49.595Z,5.40
2019-03-13T04:07:18.499Z,5.40
2019-03-13T04:09:47.245Z,5.40
2019-03-13T04:12:22.857Z,5.40
2019-03-13T04:14:51.704Z,5.40
2019-03-13T04:17:20.513Z,5.40
2019-03-13T04:19:56.029Z,5.30
2019-03-13T04:22:24.831Z,5.30
2019-03-13T04:24:53.625Z,5.30
2019-03-13T04:27:28.901Z,5.30
2019-03-13T04:29:57.633Z,5.30
2019-03-13T04:32:26.362Z,5.30
2019-03-13T04:35:01.692Z,5.30
2019-03-13T04:37:30.438Z,5.30
2019-03-13T04:39:59.170Z,5.30
2019-03-13T04:42:34.846Z,5.20
2019-03-13T04:45:03.768Z,5.20
2019-03-13T04:47:32.519Z,5.10
2019-03-13T04:50:07.877Z,5.10
2019-03-13T04:52:43.314Z,5.10
2019-03-13T04:55:19.389Z,5.10
2019-03-13T04:57:54.965Z,5.10
2019-03-13T05:00:30.184Z,5.00
2019-03-13T05:02:59.026Z,4.90
2019-03-13T05:06:13.759Z,4.90
2019-03-13T05:08:45.785Z,5.00
2019-03-13T05:11:14.578Z,5.00
2019-03-13T05:13:49.864Z,4.90
2019-03-13T05:16:18.609Z,4.90
2019-03-13T05:18:47.320Z,4.90
2019-03-13T05:21:22.578Z,4.90
2019-03-13T05:23:51.295Z,4.90
2019-03-13T05:26:20.132Z,4.80
2019-03-13T05:28:56.807Z,4.80
2019-03-13T05:31:25.571Z,4.80
2019-03-13T05:33:54.356Z,4.80
2019-03-13T05:36:29.708Z,4.60
2019-03-13T05:38:58.584Z,4.60
2019-03-13T05:41:27.377Z,4.50
2019-03-13T05:44:02.704Z,4.50
2019-03-13T05:46:31.485Z,4.50
2019-03-13T05:49:19.525Z,4.60
2019-03-13T05:51:48.356Z,4.60
2019-03-13T05:54:17.066Z,4.60
2019-03-13T05:56:52.018Z,4.60
2019-03-13T05:59:27.423Z,4.60
2019-03-13T06:02:02.948Z,4.60
2019-03-13T06:04:31.921Z,4.60
2019-03-13T06:07:01.581Z,4.60
2019-03-13T06:09:37.294Z,4.50
2019-03-13T06:12:06.061Z,4.50
2019-03-13T06:14:34.774Z,4.60
2019-03-13T06:17:10.081Z,4.60
2019-03-13T06:19:38.789Z,4.70
2019-03-13T06:22:07.559Z,4.70
2019-03-13T06:24:43.191Z,4.70
2019-03-13T06:27:11.914Z,4.70
2019-03-13T06:29:40.672Z,4.70
2019-03-13T06:32:15.711Z,4.70
2019-03-13T06:34:44.449Z,4.70
2019-03-13T06:37:13.280Z,4.80
2019-03-13T06:39:48.973Z,4.80
2019-03-13T06:42:17.719Z,4.80
2019-03-13T06:44:46.522Z,4.80
2019-03-13T06:47:21.379Z,4.90
2019-03-13T06:49:56.641Z,4.90
2019-03-13T06:52:38.433Z,4.90
2019-03-13T06:55:07.544Z,4.90
2019-03-13T06:57:36.241Z,5.00
2019-03-13T07:00:40.456Z,5.00
2019-03-13T07:03:28.074Z,5.00
2019-03-13T07:06:10.838Z,5.10
2019-03-13T07:09:04.340Z,5.10
2019-03-13T07:12:06.615Z,5.10
2019-03-13T07:14:57.523Z,5.10
2019-03-13T07:17:56.796Z,5.20
2019-03-13T07:20:47.301Z,5.20
2019-03-13T07:23:41.952Z,5.40
2019-03-13T07:26:28.517Z,5.60
2019-03-13T07:29:29.961Z,5.80
2019-03-13T07:32:23.737Z,5.80
2019-03-13T07:35:07.753Z,5.90
2019-03-13T07:38:04.528Z,5.80
2019-03-13T07:41:01.804Z,5.90
2019-03-13T07:43:53.748Z,6.00
2019-03-13T07:46:48.340Z,6.00
2019-03-13T07:49:24.943Z,6.00
2019-03-13T07:52:24.785Z,6.00
2019-03-13T07:55:22.286Z,6.00
2019-03-13T07:58:10.115Z,6.10
2019-03-13T08:01:03.849Z,6.10
2019-03-13T08:03:46.864Z,6.00
2019-03-13T08:06:32.263Z,6.10
2019-03-13T08:09:45.357Z,6.10
2019-03-13T08:12:31.701Z,6.20
2019-03-13T08:15:38.384Z,6.40
2019-03-13T08:18:27.207Z,6.70
2019-03-13T08:21:30.515Z,7.00
2019-03-13T08:24:21.253Z,7.10
2019-03-13T08:27:13.489Z,7.30
2019-03-13T08:30:01.361Z,7.50
2019-03-13T08:33:10.708Z,7.60
2019-03-13T08:35:57.442Z,7.90
2019-03-13T08:38:51.010Z,8.10
2019-03-13T08:41:29.293Z,8.40
2019-03-13T08:44:15.507Z,8.60
2019-03-13T08:46:58.486Z,8.60
2019-03-13T08:49:45.180Z,8.40
2019-03-13T08:52:26.463Z,8.10
2019-03-13T08:55:30.016Z,8.40
2019-03-13T08:58:09.883Z,8.20
2019-03-13T09:01:04.408Z,8.00
2019-03-13T09:03:48.612Z,8.10
2019-03-13T09:06:47.316Z,8.20
2019-03-13T09:09:47.525Z,8.40
2019-03-13T09:12:33.447Z,8.70
2019-03-13T09:15:21.323Z,8.40
2019-03-13T09:18:15.699Z,8.50
2019-03-13T09:20:56.041Z,8.40
2019-03-13T09:23:45.317Z,8.30
2019-03-13T09:26:31.812Z,8.60
2019-03-13T09:29:32.193Z,9.30
2019-03-13T09:32:18.883Z,9.60
2019-03-13T09:35:04.243Z,9.60
2019-03-13T09:37:55.784Z,9.50
2019-03-13T09:40:57.481Z,9.50
2019-03-13T09:43:33.064Z,9.50
2019-03-13T09:46:21.749Z,9.40
2019-03-13T09:48:59.110Z,9.20
2019-03-13T09:51:48.865Z,9.40
2019-03-13T09:54:42.125Z,10.00
2019-03-13T09:57:26.371Z,9.90
2019-03-13T10:00:26.496Z,9.00
2019-03-13T10:03:33.063Z,9.20
2019-03-13T10:06:25.508Z,9.00
2019-03-13T10:09:15.015Z,8.80
2019-03-13T10:11:51.536Z,8.70
2019-03-13T10:14:43.014Z,8.90
2019-03-13T10:17:31.702Z,8.90
2019-03-13T10:20:34.823Z,8.90
2019-03-13T10:23:21.302Z,9.00
2019-03-13T10:26:11.192Z,9.10
2019-03-13T10:29:04.978Z,8.80
2019-03-13T10:31:49.437Z,8.80
2019-03-13T10:34:25.572Z,9.40
2019-03-13T10:37:13.102Z,9.70
2019-03-13T10:39:48.781Z,9.50
2019-03-13T10:42:32.449Z,9.70
2019-03-13T10:45:19.728Z,9.90
2019-03-13T10:48:17.966Z,10.10
2019-03-13T10:51:06.488Z,10.30
2019-03-13T10:54:10.307Z,10.80
2019-03-13T10:56:58.744Z,10.70
2019-03-13T10:59:40.939Z,11.40
2019-03-13T11:02:18.032Z,11.20
2019-03-13T11:05:03.798Z,11.40
2019-03-13T11:08:01.920Z,11.40
2019-03-13T11:10:48.656Z,11.60
2019-03-13T11:13:30.210Z,12.20
2019-03-13T11:16:16.723Z,11.90
2019-03-13T11:19:10.597Z,11.80
2019-03-13T11:21:52.213Z,11.80
2019-03-13T11:24:26.505Z,12.30
2019-03-13T11:27:11.346Z,12.20
2019-03-13T11:29:58.060Z,11.90
2019-03-13T11:32:41.139Z,12.40
2019-03-13T11:35:17.036Z,12.00
2019-03-13T11:38:14.496Z,11.70
2019-03-13T11:40:57.925Z,11.30
2019-03-13T11:43:50.902Z,11.00
2019-03-13T11:46:43.605Z,10.90
2019-03-13T11:49:44.435Z,11.00
2019-03-13T11:52:41.359Z,10.90
2019-03-13T11:55:48.949Z,10.50
2019-03-13T11:58:36.780Z,10.60
2019-03-13T12:01:27.940Z,10.30
2019-03-13T12:04:12.153Z,10.20
2019-03-13T12:06:56.114Z,10.20
2019-03-13T12:09:43.578Z,10.10
2019-03-13T12:12:40.840Z,9.80
2019-03-13T12:15:29.631Z,9.60
2019-03-13T12:18:20.205Z,9.80
2019-03-13T12:21:01.957Z,9.50
2019-03-13T12:23:57.715Z,9.50
2019-03-13T12:26:35.843Z,9.50
2019-03-13T12:29:20.299Z,9.30
2019-03-13T12:31:59.527Z,9.30
2019-03-13T12:34:42.333Z,9.20
2019-03-13T12:37:30.288Z,9.20
2019-03-13T12:40:18.704Z,9.20
2019-03-13T12:43:05.199Z,9.20
2019-03-13T12:46:05.269Z,9.20
2019-03-13T12:48:50.301Z,9.20
2019-03-13T12:51:50.607Z,9.00
2019-03-13T12:54:39.468Z,9.00
2019-03-13T12:57:37.071Z,9.10
2019-03-13T13:00:27.043Z,9.00
2019-03-13T13:03:10.314Z,9.00
2019-03-13T13:05:47.885Z,9.10
2019-03-13T13:08:34.240Z,9.00
2019-03-13T13:11:48.212Z,8.90
2019-03-13T13:14:42.674Z,9.00
2019-03-13T13:17:20.057Z,8.90
2019-03-13T13:19:55.543Z,8.90
2019-03-13T13:22:24.943Z,8.90
2019-03-13T13:24:53.852Z,8.90
2019-03-13T13:27:29.906Z,8.90
2019-03-13T13:29:58.607Z,8.90
2019-03-13T13:32:27.293Z,8.90
2019-03-13T13:35:02.965Z,8.90
2019-03-13T13:37:31.685Z,9.00
2019-03-13T13:40:00.454Z,8.90
2019-03-13T13:42:35.722Z,8.90
2019-03-13T13:45:04.843Z,8.90
2019-03-13T13:47:33.632Z,8.90
2019-03-13T13:50:08.493Z,8.90
2019-03-13T13:52:37.219Z,8.90
2019-03-13T13:55:19.573Z,8.90
2019-03-13T13:57:55.322Z,9.00
2019-03-13T14:00:31.037Z,9.10
2019-03-13T14:02:59.769Z,9.10
2019-03-13T14:05:28.502Z,9.10
2019-03-13T14:08:03.678Z,9.10
2019-03-13T14:10:32.395Z,9.10
2019-03-13T14:13:14.608Z,9.10
2019-03-13T14:15:43.360Z,9.10
2019-03-13T14:18:12.083Z,9.10
2019-03-13T14:20:47.310Z,9.20
2019-03-13T14:23:16.036Z,9.10
2019-03-13T14:25:45.717Z,9.00
2019-03-13T14:28:21.274Z,9.00
2019-03-13T14:30:50.009Z,9.00
2019-03-13T14:33:18.752Z,9.00
2019-03-13T14:35:54.454Z,9.00
2019-03-13T14:38:23.181Z,9.10
2019-03-13T14:40:51.988Z,9.00
2019-03-13T14:43:27.328Z,9.00
2019-03-13T14:45:56.200Z,9.00
2019-03-13T14:48:24.909Z,8.90
2019-03-13T14:51:00.019Z,8.90
2019-03-13T14:53:28.716Z,9.00
2019-03-13T14:56:11.221Z,9.00
2019-03-13T14:58:46.879Z,9.00
2019-03-13T15:01:21.980Z,9.00
2019-03-13T15:03:50.861Z,9.10
2019-03-13T15:06:19.782Z,9.10
2019-03-13T15:08:55.141Z,9.10
2019-03-13T15:11:23.960Z,9.10
2019-03-13T15:14:06.136Z,9.00
2019-03-13T15:16:34.898Z,9.00
2019-03-13T15:19:03.702Z,9.00
2019-03-13T15:21:39.281Z,8.90
2019-03-13T15:24:08.025Z,8.90
2019-03-13T15:26:36.812Z,8.90
2019-03-13T15:29:13.834Z,8.90
2019-03-13T15:31:42.635Z,8.90
2019-03-13T15:34:11.497Z,8.80
2019-03-13T15:36:47.091Z,8.90
2019-03-13T15:39:15.865Z,8.90
2019-03-13T15:41:44.664Z,8.80
2019-03-13T15:44:19.845Z,8.80
2019-03-13T15:46:55.204Z,8.80
2019-03-13T15:49:30.900Z,8.80
2019-03-13T15:51:59.703Z,8.80
2019-03-13T15:54:47.724Z,8.80
2019-03-13T15:57:18.382Z,8.70
2019-03-13T15:59:46.904Z,8.70
2019-03-13T16:02:21.787Z,8.70
2019-03-13T16:04:51.614Z,8.70
2019-03-13T16:07:20.356Z,8.70
2019-03-13T16:09:55.505Z,8.70
2019-03-13T16:12:24.233Z,8.70
2019-03-13T16:15:06.323Z,8.70
2019-03-13T16:17:35.134Z,8.70
2019-03-13T16:20:04.304Z,8.60
2019-03-13T16:22:40.001Z,8.60
2019-03-13T16:25:09.125Z,8.60
2019-03-13T16:27:38.012Z,8.60
2019-03-13T16:30:16.628Z,8.50
2019-03-13T16:32:45.478Z,8.50
2019-03-13T16:35:14.480Z,8.50
2019-03-13T16:37:50.460Z,8.50
2019-03-13T16:40:22.190Z,8.50
2019-03-13T16:42:50.907Z,8.40
2019-03-13T16:45:27.585Z,8.40
2019-03-13T16:47:56.336Z,8.40
2019-03-13T16:50:25.165Z,8.40
2019-03-13T16:53:00.707Z,8.40
2019-03-13T16:55:35.953Z,8.40
2019-03-13T16:58:18.656Z,8.30
2019-03-13T17:00:50.466Z,8.30
2019-03-13T17:03:17.956Z,8.30
2019-03-13T17:05:52.902Z,8.30
2019-03-13T17:08:21.692Z,8.30
2019-03-13T17:10:53.295Z,8.20
2019-03-13T17:13:29.575Z,8.30
2019-03-13T17:16:04.984Z,8.20
2019-03-13T17:18:40.357Z,8.10
2019-03-13T17:21:09.302Z,8.10
2019-03-13T17:23:38.122Z,8.00
2019-03-13T17:26:13.490Z,7.90
2019-03-13T17:28:42.223Z,7.90
2019-03-13T17:31:10.996Z,7.80
2019-03-13T17:33:46.076Z,7.80
2019-03-13T17:36:14.815Z,7.80
2019-03-13T17:38:43.661Z,7.70
2019-03-13T17:41:18.848Z,7.70
2019-03-13T17:43:47.559Z,7.70
2019-03-13T17:46:16.326Z,7.80
2019-03-13T17:48:51.740Z,7.80
2019-03-13T17:51:20.553Z,7.80
2019-03-13T17:53:49.324Z,7.90
2019-03-13T17:56:24.922Z,7.80
2019-03-13T17:59:00.098Z,7.80
2019-03-13T18:01:35.200Z,7.70
2019-03-13T18:04:31.285Z,7.70
2019-03-13T18:07:06.624Z,7.70
2019-03-13T18:09:35.420Z,7.80
2019-03-13T18:12:04.297Z,7.80
2019-03-13T18:14:39.911Z,7.70
2019-03-13T18:17:15.757Z,7.70
2019-03-13T18:19:51.369Z,7.70
2019-03-13T18:22:20.163Z,7.70
2019-03-13T18:24:48.942Z,7.70
2019-03-13T18:27:23.820Z,7.70
2019-03-13T18:29:52.544Z,7.70
2019-03-13T18:32:21.264Z,7.70
2019-03-13T18:34:56.395Z,7.60
2019-03-13T18:37:25.173Z,7.70
2019-03-13T18:39:54.032Z,7.70
2019-03-13T18:42:30.240Z,7.60
2019-03-13T18:44:58.972Z,7.60
2019-03-13T18:47:27.915Z,7.60
2019-03-13T18:50:03.696Z,7.50
2019-03-13T18:52:32.412Z,7.40
2019-03-13T18:55:03.264Z,7.20
2019-03-13T18:57:39.011Z,7.20
2019-03-13T19:00:18.167Z,7.10
2019-03-13T19:02:53.887Z,7.00
2019-03-13T19:05:22.754Z,6.90
2019-03-13T19:07:51.692Z,6.90
2019-03-13T19:10:28.223Z,6.80
2019-03-13T19:12:57.259Z,6.80
2019-03-13T19:15:26.252Z,6.80
2019-03-13T19:18:08.962Z,6.60
2019-03-13T19:20:37.937Z,6.50
2019-03-13T19:23:06.655Z,6.50
2019-03-13T19:25:42.236Z,6.50
2019-03-13T19:28:11.040Z,6.40
2019-03-13T19:30:39.946Z,6.40
2019-03-13T19:33:15.093Z,6.30
2019-03-13T19:35:43.825Z,6.30
2019-03-13T19:38:12.560Z,6.20
2019-03-13T19:40:47.619Z,6.20
2019-03-13T19:43:16.443Z,6.20
2019-03-13T19:45:45.267Z,6.10
2019-03-13T19:48:20.466Z,6.20
2019-03-13T19:50:49.203Z,6.20
2019-03-13T19:53:17.953Z,6.20
2019-03-13T19:55:53.589Z,6.30
2019-03-13T19:58:29.088Z,6.20
2019-03-13T20:01:11.158Z,6.20
2019-03-13T20:03:54.400Z,6.20
2019-03-13T20:06:12.541Z,6.20
2019-03-13T20:08:49.031Z,6.20
2019-03-13T20:11:21.102Z,6.30
2019-03-13T20:13:49.867Z,6.20
2019-03-13T20:16:25.049Z,6.20
2019-03-13T20:19:00.836Z,6.20
2019-03-13T20:21:37.279Z,6.30
2019-03-13T20:24:06.104Z,6.30
2019-03-13T20:26:35.205Z,6.50
2019-03-13T20:29:11.269Z,6.50
2019-03-13T20:31:40.108Z,6.40
2019-03-13T20:34:08.955Z,6.50
2019-03-13T20:36:44.201Z,6.50
2019-03-13T20:39:13.123Z,6.60
2019-03-13T20:41:41.924Z,6.60
2019-03-13T20:44:17.520Z,6.60
2019-03-13T20:46:48.579Z,6.60
2019-03-13T20:49:17.427Z,6.60
2019-03-13T20:51:53.398Z,6.70
2019-03-13T20:54:22.227Z,6.60
2019-03-13T20:57:04.258Z,6.60
2019-03-13T20:59:39.702Z,6.60
2019-03-13T21:02:15.623Z,6.50
2019-03-13T21:04:44.435Z,6.60
2019-03-13T21:07:13.360Z,6.60
2019-03-13T21:09:48.342Z,6.50
2019-03-13T21:12:17.156Z,6.50
2019-03-13T21:14:46.894Z,6.40
2019-03-13T21:17:22.255Z,6.40
2019-03-13T21:19:57.691Z,6.40
2019-03-13T21:22:33.214Z,6.40
2019-03-13T21:25:02.100Z,6.40
2019-03-13T21:27:30.832Z,6.40
2019-03-13T21:30:06.058Z,6.40
2019-03-13T21:32:34.827Z,6.40
2019-03-13T21:35:03.625Z,6.40
2019-03-13T21:37:38.931Z,6.30
2019-03-13T21:40:07.854Z,6.30
2019-03-13T21:42:36.539Z,6.20
2019-03-13T21:45:21.851Z,6.10
2019-03-13T21:47:42.578Z,6.00
2019-03-13T21:50:13.229Z,5.90
2019-03-13T21:52:48.828Z,5.80
2019-03-13T21:55:17.660Z,5.70
2019-03-13T21:57:59.676Z,5.70
2019-03-13T22:00:35.294Z,5.60
2019-03-13T22:03:10.348Z,5.60
2019-03-13T22:05:39.088Z,5.60
2019-03-13T22:08:07.829Z,5.60
2019-03-13T22:10:43.248Z,5.50
2019-03-13T22:13:11.923Z,5.60
2019-03-13T22:15:40.663Z,5.60
2019-03-13T22:18:15.615Z,5.60
2019-03-13T22:20:52.374Z,5.60
2019-03-13T22:23:28.149Z,5.60
2019-03-13T22:25:56.907Z,5.60
2019-03-13T22:28:25.692Z,5.50
2019-03-13T22:31:02.726Z,5.40
2019-03-13T22:33:31.451Z,5.40
2019-03-13T22:36:00.198Z,5.30
2019-03-13T22:38:35.629Z,5.30
2019-03-13T22:41:04.413Z,5.30
2019-03-13T22:43:33.227Z,5.30
2019-03-13T22:46:08.628Z,5.30
2019-03-13T22:48:37.400Z,5.30
2019-03-13T22:51:06.150Z,5.30
2019-03-13T22:53:41.715Z,5.30
2019-03-13T22:56:11.479Z,5.30
2019-03-13T22:58:53.255Z,5.30
2019-03-13T23:01:29.168Z,5.30
2019-03-13T23:04:04.838Z,5.30
2019-03-13T23:06:33.663Z,5.30
2019-03-13T23:09:02.444Z,5.30
2019-03-13T23:11:38.233Z,5.30
2019-03-13T23:14:07.075Z,5.30
2019-03-13T23:16:35.847Z,5.30
2019-03-13T23:19:11.786Z,5.30
2019-03-13T23:21:47.099Z,5.30
2019-03-13T23:24:22.232Z,5.30
2019-03-13T23:26:51.867Z,5.30
2019-03-13T23:29:20.714Z,5.30
2019-03-13T23:31:56.609Z,5.30
2019-03-13T23:34:25.430Z,5.30
2019-03-13T23:36:54.260Z,5.30
2019-03-13T23:39:30.050Z,5.30
2019-03-13T23:41:58.809Z,5.40
2019-03-13T23:44:27.602Z,5.40
2019-03-13T23:47:03.425Z,5.40
2019-03-13T23:49:32.233Z,5.40
2019-03-13T23:52:02.863Z,5.40
2019-03-13T23:54:38.358Z,5.40
2019-03-13T23:57:07.185Z,5.40
2019-03-13T23:59:49.507Z,5.40
